• Join FlightAware (Why Join?)
  • Login
  • US Flag 
05:59AM EDT


 

Airport Tracker/Info


-or-


 

Live Flight TrackerFlight Track Log ✈ RPA3161 ✈ 22-Jun-2013 ✈ KBTV - KDCA

Flight Track Log - Related Links

Times and Time Zones

All times are in EDT time to prevent confusion due to time zone crossing. See the RPA3161 flight status page for this flight to view local times or setup timezone preferences in your user account.

Time Position Orientation Groundspeed Altitude Reporting Facility
EDT Latitude Longitude Course Direction KTS MPH feet Rate Location/Type
01:47PM 44.2672 -73.1736 198° South 283 326 9,500  Level Boston Center
01:48PM 44.1900 -73.2072 197° South 288 331 10,000 900 Climbing Boston Center
01:49PM 43.9770 -73.3299 194° South  Level FlightAware Approximate
01:49PM 44.1067 -73.2006 177° South 293 337 11,300  Level Boston Center
01:50PM 43.8540 -73.3736 195° South  Level FlightAware Approximate
01:50PM 44.0111 -73.1703 167° South 312 359 14,500  Level Boston Center
01:51PM 43.7313 -73.4196 195° South  Level FlightAware Approximate
01:51PM 43.9175 -73.1406 167° South 327 376 17,000  Level Boston Center
01:52PM 43.6094 -73.4685 198° South  Level FlightAware Approximate
01:52PM 43.8194 -73.1394 180° South 346 398 19,100  Level Boston Center
01:53PM 43.7236 -73.1556 187° South 356 410 21,700 2,100 Climbing Boston Center
01:54PM 43.6319 -73.1686 186° South 364 419 23,400 1,500 Climbing Boston Center
01:55PM 43.5233 -73.1903 188° South 381 438 24,700 1,740 Climbing Boston Center
01:56PM 43.4128 -73.2089 187° South 396 456 26,900 1,800 Climbing Boston Center
01:57PM 43.2939 -73.2358 189° South 396 456 28,400 1,500 Climbing Boston Center
01:58PM 43.1833 -73.2544 187° South 401 461 30,000 780 Climbing Boston Center
01:59PM 43.0683 -73.2728 187° South 407 468 30,000  Level Boston Center
02:00PM 42.9578 -73.2969 189° South 412 474 30,000  Level Boston Center
02:01PM 42.8450 -73.3150 187° South 412 474 30,000  Level Boston Center
02:02PM 42.7325 -73.3361 188° South 412 474 30,000  Level Boston Center
02:03PM 42.6197 -73.3569 188° South 412 474 30,000  Level Boston Center
02:04PM 42.5300 -73.3756 189° South 407 468 30,000 -600 Level Boston Center
02:05PM 42.3964 -73.3958 186° South 412 474 28,900 -1,020 Descending Boston Center
02:06PM 42.3006 -73.4000 182° South 401 461 28,000 -480 Descending Boston Center
02:07PM 42.1919 -73.4208 188° South 396 456 28,000  Level Boston Center
02:08PM 42.0856 -73.4417 188° South 396 456 28,000  Level Boston Center
02:10PM 41.8550 -73.4864 188° South 396 456 28,000  Level New York Center
02:11PM 41.7422 -73.5067 188° South 396 456 28,000  Level New York Center
02:12PM 41.6336 -73.5217 186° South 396 456 28,000  Level New York Center
02:13PM 41.5414 -73.5400 188° South 391 450 28,000  Level New York Center
02:14PM 41.4417 -73.6217 212° Southwest 381 438 28,000  Level New York Center
02:15PM 41.3644 -73.7178 223° Southwest 379 436 28,000  Level New York Center
02:16PM 41.2869 -73.8111 222° Southwest 384 442 28,000  Level New York Center
02:17PM 41.2075 -73.9067 222° Southwest 384 442 28,000  Level New York Center
02:18PM 41.1278 -74.0022 222° Southwest 384 442 28,000  Level New York Center
02:19PM 41.0522 -74.0950 223° Southwest 384 442 28,000  Level New York Center
02:20PM 40.9875 -74.1742 223° Southwest 384 442 28,000  Level New York Center
02:21PM 40.8886 -74.2817 219° Southwest 389 448 28,000  Level New York Center
02:22PM 40.8108 -74.3764 223° Southwest 389 448 28,000  Level New York Center
02:23PM 40.7489 -74.4881 234° Southwest 382 440 28,000  Level New York Center
02:24PM 40.6975 -74.5947 238° Southwest 382 440 28,000  Level New York Center
02:25PM 40.6278 -74.6947 227° Southwest 387 445 28,000  Level New York Center
02:26PM 40.5533 -74.7972 226° Southwest 387 445 28,000  Level New York Center
02:27PM 40.4811 -74.8994 227° Southwest 387 445 28,000  Level New York Center
02:28PM 40.4089 -74.9986 226° Southwest 387 445 28,000 -420 Level New York Center
02:29PM 40.3342 -75.1003 226° Southwest 387 445 27,200 -1,440 Descending New York Center
02:30PM 40.2617 -75.2017 227° Southwest 387 445 25,200 -1,920 Descending New York Center
02:31PM 40.1936 -75.2953 226° Southwest 381 438 23,400 -1,620 Descending New York Center
02:32PM 40.1275 -75.3858 226° Southwest 367 422 22,000 -720 Descending New York Center
02:33PM 40.0636 -75.4739 227° Southwest 353 406 22,000  Level New York Center
02:34PM 40.0036 -75.5619 228° Southwest 342 394 22,000  Level New York Center
02:35PM 39.9433 -75.6581 231° Southwest 342 394 22,000  Level New York Center
02:36PM 39.8856 -75.7486 230° Southwest 342 394 22,000  Level New York Center
02:37PM 39.8231 -75.8417 229° Southwest 342 394 22,000 -420 Level New York Center
02:38PM 39.7669 -75.9375 233° Southwest 342 394 21,200 -1,260 Descending New York Center
02:39PM 39.7067 -76.0247 228° Southwest 337 388 19,500 -1,680 Descending New York Center
02:40PM 39.6417 -76.1250 230° Southwest 328 377 17,900 -1,800 Descending New York Center
02:41PM 39.5667 -76.2500 232° Southwest 305 351 15,300 -1,800 Descending Potomac TRACON
02:42PM 39.5167 -76.3333 232° Southwest 298 343 13,700 -1,620 Descending Potomac TRACON
02:43PM 39.4500 -76.4167 224° Southwest 301 346 12,100 -900 Descending Potomac TRACON
02:44PM 39.4000 -76.4667 218° Southwest 293 337 12,000 -60 Descending Potomac TRACON
02:45PM 39.3333 -76.5333 218° Southwest 296 341 12,000 -60 Level Potomac TRACON
02:46PM 39.2667 -76.5833 210° Southwest 297 342 11,900 -840 Descending Potomac TRACON
02:47PM 39.2000 -76.6500 218° Southwest 292 336 10,400 -960 Descending Potomac TRACON
02:48PM 39.1333 -76.7167 218° Southwest 284 327 10,000 -360 Descending Potomac TRACON
02:49PM 39.1000 -76.8000 243° Southwest 289 333 9,700 -960 Descending Potomac TRACON
02:50PM 39.0833 -76.9000 258° West 286 329 8,100 -1,080 Descending Potomac TRACON
02:51PM 39.0667 -76.9833 256° West 239 275 7,600 -1,140 Descending Potomac TRACON
02:52PM 39.0500 -77.0667 256° West 228 262 5,900 -1,500 Descending Potomac TRACON
02:53PM 39.0333 -77.1500 256° West 211 243 4,600 -1,260 Descending Potomac TRACON
02:54PM 39.0167 -77.1833 237° Southwest 185 213 3,400 -1,200 Descending Potomac TRACON